createdAt,value
2019-05-10T00:00:59.102Z,8.50
2019-05-10T00:03:47.326Z,9.53
2019-05-10T00:06:37.056Z,10.70
2019-05-10T00:09:06.783Z,10.23
2019-05-10T00:11:54.631Z,10.07
2019-05-10T00:14:59.379Z,10.07
2019-05-10T00:17:31.061Z,9.03
2019-05-10T00:20:01.638Z,9.47
2019-05-10T00:22:32.539Z,8.20
2019-05-10T00:25:05.210Z,9.13
2019-05-10T00:27:36.865Z,8.27
2019-05-10T00:30:08.866Z,7.97
2019-05-10T00:32:41.464Z,7.83
2019-05-10T00:35:13.700Z,8.33
2019-05-10T00:37:44.157Z,9.10
2019-05-10T00:40:16.442Z,6.47
2019-05-10T00:42:47.275Z,7.90
2019-05-10T00:45:17.905Z,7.20
2019-05-10T00:47:48.275Z,7.43
2019-05-10T00:50:18.653Z,7.17
2019-05-10T00:52:49.494Z,7.47
2019-05-10T00:55:19.969Z,7.47
2019-05-10T00:57:50.445Z,6.20
2019-05-10T01:00:24.118Z,7.57
2019-05-10T01:02:55.417Z,8.23
2019-05-10T01:05:25.899Z,8.70
2019-05-10T01:07:57.125Z,7.10
2019-05-10T01:10:27.981Z,9.00
2019-05-10T01:13:11.799Z,7.53
2019-05-10T01:15:46.826Z,8.50
2019-05-10T02:16:18.345Z,10.17
2019-05-10T02:19:02.390Z,9.17
2019-05-10T02:21:33.804Z,9.03
2019-05-10T02:24:07.247Z,10.07
2019-05-10T02:26:53.868Z,9.23
2019-05-10T02:29:24.166Z,9.60
2019-05-10T02:31:55.223Z,8.50
2019-05-10T02:34:27.533Z,9.47
2019-05-10T02:37:01.591Z,8.77
2019-05-10T02:39:34.589Z,8.37
2019-05-10T02:42:07.499Z,9.47
2019-05-10T02:44:38.459Z,8.53
2019-05-10T02:47:12.041Z,10.60
2019-05-10T02:49:42.504Z,9.13
2019-05-10T02:52:17.176Z,9.77
2019-05-10T02:54:53.936Z,9.60
2019-05-10T02:57:26.951Z,9.50
2019-05-10T02:59:59.017Z,9.63
2019-05-10T03:02:29.848Z,9.80
2019-05-10T03:05:01.634Z,11.27
2019-05-10T03:07:35.545Z,8.90
2019-05-10T03:10:07.218Z,9.83
2019-05-10T03:14:00.801Z,9.63
2019-05-10T03:16:38.196Z,8.87
2019-05-10T03:19:11.617Z,10.77
2019-05-10T03:21:44.408Z,9.17
2019-05-10T03:24:22.041Z,9.70
2019-05-10T03:26:56.101Z,9.50
2019-05-10T03:29:26.665Z,8.17
2019-05-10T03:31:57.367Z,7.57
2019-05-10T03:34:27.666Z,8.00
2019-05-10T03:36:57.907Z,8.73
2019-05-10T03:39:28.724Z,9.60
2019-05-10T03:41:59.052Z,8.10
2019-05-10T03:44:29.788Z,10.37
2019-05-10T03:47:00.421Z,8.10
2019-05-10T03:49:30.656Z,9.33
2019-05-10T03:52:01.410Z,8.77
2019-05-10T03:54:31.654Z,9.03
2019-05-10T03:57:13.322Z,7.70
2019-05-10T03:59:36.101Z,8.87
2019-05-10T04:02:08.224Z,9.40
2019-05-10T04:04:38.640Z,10.20
2019-05-10T04:07:10.545Z,9.57
2019-05-10T04:09:42.924Z,9.20
2019-05-10T04:12:13.685Z,10.40
2019-05-10T04:14:44.181Z,10.53
2019-05-10T04:17:14.762Z,9.97
2019-05-10T04:19:47.221Z,11.40
2019-05-10T04:22:22.707Z,11.47
2019-05-10T04:24:54.413Z,9.97
2019-05-10T04:27:31.986Z,10.73
2019-05-10T04:30:00.208Z,11.00
2019-05-10T04:32:34.866Z,11.07
2019-05-10T04:35:06.125Z,9.87
2019-05-10T04:37:37.732Z,10.30
2019-05-10T04:40:13.915Z,9.13
2019-05-10T04:42:44.584Z,8.70
2019-05-10T04:45:15.224Z,8.47
2019-05-10T04:47:45.841Z,9.50
2019-05-10T04:50:17.279Z,9.50
2019-05-10T04:52:47.758Z,9.90
2019-05-10T04:55:18.112Z,9.27
2019-05-10T04:57:51.234Z,9.50
2019-05-10T05:00:21.256Z,7.67
2019-05-10T05:02:53.446Z,8.77
2019-05-10T05:05:27.594Z,9.30
2019-05-10T05:07:57.977Z,10.23
2019-05-10T05:10:28.335Z,8.87
2019-05-10T05:12:58.567Z,9.47
2019-05-10T05:15:28.991Z,10.20
2019-05-10T05:17:59.349Z,11.43
2019-05-10T05:20:29.643Z,11.57
2019-05-10T05:22:59.829Z,12.87
2019-05-10T05:25:35.239Z,10.53
2019-05-10T05:28:07.791Z,10.83
2019-05-10T05:30:38.897Z,11.60
2019-05-10T05:33:09.107Z,12.33
2019-05-10T05:35:40.416Z,12.77
2019-05-10T05:38:12.708Z,10.80
2019-05-10T05:40:50.461Z,13.10
2019-05-10T05:43:20.685Z,14.10
2019-05-10T05:45:50.980Z,14.40
2019-05-10T05:48:22.891Z,14.80
2019-05-10T05:50:53.404Z,16.13
2019-05-10T05:53:23.643Z,14.43
2019-05-10T05:55:53.929Z,10.40
2019-05-10T05:58:27.515Z,9.97
2019-05-10T06:00:55.859Z,9.40
2019-05-10T06:03:28.115Z,5.80
2019-05-10T06:05:58.147Z,5.80
2019-05-10T06:08:30.458Z,5.60
2019-05-10T06:11:00.861Z,5.60
2019-05-10T06:13:32.528Z,5.57
2019-05-10T06:16:06.368Z,5.63
2019-05-10T06:18:35.258Z,5.30
2019-05-10T06:21:08.859Z,4.40
2019-05-10T06:23:39.380Z,6.40
2019-05-10T06:26:21.483Z,6.28
2019-05-10T06:29:10.169Z,6.20
2019-05-10T06:31:21.882Z,6.57
2019-05-10T06:33:53.051Z,6.03
2019-05-10T06:36:23.397Z,5.70
2019-05-10T06:38:53.857Z,5.10
2019-05-10T06:41:26.544Z,4.80
2019-05-10T06:43:58.487Z,4.47
2019-05-10T06:46:30.993Z,4.70
2019-05-10T06:49:07.423Z,5.10
2019-05-10T06:51:35.320Z,5.10
2019-05-10T06:54:06.355Z,5.10
2019-05-10T06:56:36.580Z,5.37
2019-05-10T06:59:13.312Z,5.17
2019-05-10T07:01:45.734Z,4.53
2019-05-10T07:04:27.766Z,5.33
2019-05-10T07:07:01.040Z,5.00
2019-05-10T07:09:59.338Z,4.60
2019-05-10T07:12:09.471Z,5.43
2019-05-10T07:14:45.643Z,5.97
2019-05-10T07:17:11.466Z,5.70
2019-05-10T07:19:53.747Z,5.67
2019-05-10T07:22:14.901Z,7.37
2019-05-10T07:24:57.382Z,7.80
2019-05-10T07:27:27.727Z,7.80
2019-05-10T07:30:12.364Z,7.77
2019-05-10T07:32:43.113Z,7.40
2019-05-10T07:35:13.504Z,7.17
2019-05-10T07:37:47.803Z,7.10
2019-05-10T07:40:16.507Z,6.57
2019-05-10T07:42:47.200Z,6.80
2019-05-10T07:45:18.847Z,5.53
2019-05-10T07:47:50.355Z,5.40
2019-05-10T07:50:22.602Z,5.63
2019-05-10T07:52:52.787Z,5.60
2019-05-10T07:55:27.705Z,4.83
2019-05-10T07:57:59.116Z,4.90
2019-05-10T08:00:27.790Z,5.00
2019-05-10T08:03:11.835Z,4.60
2019-05-10T08:05:29.843Z,4.50
2019-05-10T08:08:00.083Z,4.57
2019-05-10T08:10:30.275Z,4.20
2019-05-10T08:13:03.476Z,4.30
2019-05-10T08:15:34.997Z,4.37
2019-05-10T08:18:05.323Z,4.33
2019-05-10T08:20:46.570Z,4.60
2019-05-10T08:23:08.746Z,4.37
2019-05-10T08:25:44.386Z,5.00
2019-05-10T08:28:12.716Z,5.10
2019-05-10T08:30:51.873Z,5.47
2019-05-10T08:33:16.894Z,4.80
2019-05-10T08:35:52.423Z,4.10
2019-05-10T08:38:21.767Z,3.87
2019-05-10T08:40:52.734Z,3.70
2019-05-10T08:43:24.635Z,3.83
2019-05-10T08:45:57.865Z,4.30
2019-05-10T08:48:27.869Z,4.33
2019-05-10T08:51:05.551Z,3.90
2019-05-10T08:53:32.832Z,4.27
2019-05-10T08:56:07.620Z,4.17
2019-05-10T08:58:37.155Z,3.90
2019-05-10T09:01:20.429Z,4.10
2019-05-10T09:03:41.933Z,4.40
2019-05-10T09:06:16.678Z,4.30
2019-05-10T09:08:43.712Z,4.53
2019-05-10T09:11:16.259Z,4.80
2019-05-10T09:13:46.472Z,4.53
2019-05-10T09:16:17.908Z,5.40
2019-05-10T09:18:52.252Z,5.07
2019-05-10T09:21:22.309Z,5.10
2019-05-10T09:24:01.200Z,5.40
2019-05-10T09:26:24.789Z,6.17
2019-05-10T09:28:57.484Z,6.00
2019-05-10T09:31:29.769Z,6.20
2019-05-10T09:34:01.946Z,5.87
2019-05-10T09:36:36.232Z,6.83
2019-05-10T09:39:09.028Z,6.40
2019-05-10T09:41:38.445Z,7.30
2019-05-10T09:44:08.955Z,6.07
2019-05-10T09:46:39.308Z,7.00
2019-05-10T09:49:15.719Z,7.83
2019-05-10T09:51:42.291Z,6.50
2019-05-10T09:54:12.681Z,7.30
2019-05-10T09:56:44.957Z,6.93
2019-05-10T09:59:17.945Z,6.97
2019-05-10T10:02:05.019Z,6.43
2019-05-10T10:04:37.215Z,6.93
2019-05-10T10:07:09.258Z,6.97
2019-05-10T10:09:44.917Z,7.17
2019-05-10T10:12:14.228Z,7.17
2019-05-10T10:14:47.100Z,7.67
2019-05-10T10:17:18.398Z,6.87
2019-05-10T10:19:48.980Z,7.63
2019-05-10T10:22:19.960Z,8.17
2019-05-10T10:24:55.109Z,7.50
2019-05-10T10:27:26.005Z,7.83
2019-05-10T10:29:57.352Z,8.40
2019-05-10T10:32:31.367Z,8.10
2019-05-10T10:35:00.146Z,7.83
2019-05-10T10:37:31.866Z,9.20
2019-05-10T10:40:05.597Z,10.57
2019-05-10T10:42:38.055Z,8.17
2019-05-10T10:45:09.759Z,9.40
2019-05-10T10:47:40.516Z,9.77
2019-05-10T10:50:13.635Z,9.20
2019-05-10T10:53:03.336Z,9.07
2019-05-10T10:55:54.210Z,8.60
2019-05-10T10:58:20.063Z,8.10
2019-05-10T11:00:53.651Z,8.00
2019-05-10T11:03:29.372Z,7.17
2019-05-10T11:05:55.815Z,6.13
2019-05-10T11:08:27.232Z,6.57
2019-05-10T11:11:00.419Z,9.57
2019-05-10T11:13:57.797Z,9.67
2019-05-10T11:16:13.640Z,9.55
2019-05-10T11:18:41.819Z,8.87
2019-05-10T11:21:12.602Z,8.30
2019-05-10T11:23:54.624Z,7.00
2019-05-10T11:26:32.780Z,7.03
2019-05-10T11:29:01.314Z,7.60
2019-05-10T11:31:31.810Z,6.43
2019-05-10T11:34:06.118Z,7.57
2019-05-10T11:36:40.541Z,8.40
2019-05-10T11:39:25.760Z,4.20
2019-05-10T11:41:51.401Z,6.20
2019-05-10T11:44:25.748Z,5.50
2019-05-10T11:46:55.374Z,5.17
2019-05-10T11:49:25.585Z,6.43
2019-05-10T11:51:58.627Z,6.27
2019-05-10T11:54:28.727Z,7.50
2019-05-10T11:57:06.587Z,7.43
2019-05-10T12:02:10.298Z,7.90
2019-05-10T12:07:12.845Z,8.03
2019-05-10T12:09:43.839Z,7.63
2019-05-10T12:12:15.199Z,8.60
2019-05-10T12:14:46.570Z,10.13
2019-05-10T12:17:17.817Z,10.07
2019-05-10T12:19:55.485Z,9.40
2019-05-10T12:22:31.987Z,11.53
2019-05-10T12:26:04.857Z,7.63
2019-05-10T12:26:30.935Z,8.17
2019-05-10T12:26:50.609Z,11.63
2019-05-10T12:27:43.979Z,11.30
2019-05-10T12:30:04.767Z,10.97
2019-05-10T12:32:46.888Z,10.73
2019-05-10T12:35:11.735Z,9.70
2019-05-10T12:38:05.300Z,10.13
2019-05-10T12:40:45.523Z,9.23
2019-05-10T12:43:21.074Z,10.73
2019-05-10T12:45:58.964Z,10.40
2019-05-10T12:48:42.611Z,9.67
2019-05-10T12:51:23.512Z,10.30
2019-05-10T12:53:56.796Z,10.30
2019-05-10T13:08:43.777Z,10.67
2019-05-10T13:11:18.841Z,10.67
2019-05-10T13:14:29.354Z,9.80
2019-05-10T13:17:03.853Z,10.93
2019-05-10T13:19:38.675Z,11.30
2019-05-10T13:22:52.242Z,11.90
2019-05-10T13:25:25.480Z,10.33
2019-05-10T13:27:58.867Z,10.70
2019-05-10T13:30:37.029Z,10.20
2019-05-10T13:33:27.402Z,10.87
2019-05-10T13:35:56.492Z,11.57
2019-05-10T13:39:02.497Z,12.50
2019-05-10T13:41:57.101Z,10.47
2019-05-10T13:44:24.713Z,10.57
2019-05-10T13:46:56.144Z,10.63
2019-05-10T13:49:35.573Z,10.13
2019-05-10T13:52:19.675Z,10.40
2019-05-10T13:54:56.129Z,10.67
2019-05-10T13:57:29.642Z,9.60
2019-05-10T14:00:03.543Z,9.23
2019-05-10T14:02:34.860Z,10.10
2019-05-10T14:05:11.725Z,9.23
2019-05-10T14:07:39.904Z,9.67
2019-05-10T14:10:10.495Z,9.43
2019-05-10T14:12:50.493Z,9.17
2019-05-10T14:15:21.808Z,8.63
2019-05-10T14:17:52.090Z,9.67
2019-05-10T14:20:27.774Z,9.80
2019-05-10T14:22:58.802Z,9.93
2019-05-10T14:25:36.159Z,10.47
2019-05-10T14:28:00.475Z,10.23
2019-05-10T14:30:31.027Z,9.17
2019-05-10T14:33:01.232Z,10.60
2019-05-10T14:35:31.516Z,9.23
2019-05-10T14:38:08.205Z,9.73
2019-05-10T14:40:35.132Z,10.17
2019-05-10T14:43:11.685Z,10.07
2019-05-10T14:45:42.012Z,9.67
2019-05-10T14:48:12.420Z,8.87
2019-05-10T14:50:47.375Z,10.03
2019-05-10T14:53:25.449Z,8.40
2019-05-10T14:56:02.035Z,8.20
2019-05-10T14:58:35.056Z,10.37
2019-05-10T15:01:05.388Z,9.27
2019-05-10T15:03:44.926Z,8.60
2019-05-10T15:06:08.582Z,9.13
2019-05-10T15:08:42.779Z,9.97
2019-05-10T15:11:20.294Z,11.37
2019-05-10T15:13:51.066Z,9.30
2019-05-10T15:16:27.646Z,10.40
2019-05-10T15:18:57.114Z,9.83
2019-05-10T15:21:28.159Z,10.53
2019-05-10T15:24:00.939Z,9.27
2019-05-10T15:26:37.117Z,10.97
2019-05-10T15:29:03.450Z,10.27
2019-05-10T15:31:57.509Z,10.00
2019-05-10T15:34:28.733Z,9.27
2019-05-10T15:37:10.561Z,9.13
2019-05-10T15:39:41.815Z,8.97
2019-05-10T15:42:13.905Z,9.70
2019-05-10T15:44:44.151Z,8.70
2019-05-10T15:47:19.997Z,9.10
2019-05-10T15:49:47.425Z,7.97
2019-05-10T15:52:29.155Z,7.17
2019-05-10T15:54:59.425Z,7.67
2019-05-10T15:57:38.434Z,7.00
2019-05-10T16:00:10.413Z,6.63
2019-05-10T16:02:41.107Z,7.30
2019-05-10T16:05:23.879Z,6.63
2019-05-10T16:07:46.279Z,7.17
2019-05-10T16:10:17.338Z,6.93
2019-05-10T16:12:52.100Z,6.83
2019-05-10T16:15:26.750Z,6.70
2019-05-10T16:17:59.744Z,5.90
2019-05-10T16:20:35.197Z,5.93
2019-05-10T16:23:08.939Z,6.00
2019-05-10T16:25:55.650Z,6.30
2019-05-10T16:28:35.793Z,5.40
2019-05-10T16:31:11.164Z,6.00
2019-05-10T16:33:53.508Z,5.80
2019-05-10T17:14:31.980Z,3.93
2019-05-10T17:17:02.667Z,4.67
2019-05-10T17:19:34.182Z,4.87
2019-05-10T17:22:22.203Z,5.33
2019-05-10T17:24:56.889Z,4.40
2019-05-10T17:27:30.280Z,4.47
2019-05-10T17:30:02.155Z,4.60
2019-05-10T17:32:32.982Z,4.40
2019-05-10T17:35:07.787Z,3.70
2019-05-10T17:37:41.337Z,4.30
2019-05-10T17:40:15.167Z,4.80
2019-05-10T17:42:51.502Z,4.20
2019-05-10T17:45:20.731Z,4.10
2019-05-10T17:47:51.459Z,4.10
2019-05-10T17:50:21.997Z,3.33
2019-05-10T17:52:52.946Z,4.43
2019-05-10T17:55:27.754Z,4.40
2019-05-10T17:58:08.810Z,3.90
2019-05-10T18:00:43.980Z,2.90
2019-05-10T18:03:18.214Z,3.57
2019-05-10T18:05:53.145Z,4.03
2019-05-10T18:08:21.465Z,3.30
2019-05-10T18:10:57.235Z,3.43
2019-05-10T18:13:35.517Z,3.23
2019-05-10T18:16:15.994Z,3.17
2019-05-10T18:18:48.614Z,2.60
2019-05-10T18:21:22.271Z,3.73
2019-05-10T18:23:58.475Z,3.40
2019-05-10T18:26:34.065Z,3.67
2019-05-10T18:29:03.682Z,3.30
2019-05-10T18:31:42.342Z,3.10
2019-05-10T18:34:16.367Z,3.43
2019-05-10T18:36:51.488Z,3.77
2019-05-10T18:39:19.633Z,4.00
2019-05-10T18:41:53.009Z,4.00
2019-05-10T18:44:26.432Z,4.00
2019-05-10T18:46:58.995Z,3.40
2019-05-10T18:49:31.776Z,3.70
2019-05-10T18:52:04.586Z,4.40
2019-05-10T18:54:38.263Z,3.93
2019-05-10T18:57:12.199Z,3.90
2019-05-10T18:59:45.415Z,3.57
2019-05-10T19:02:17.644Z,3.93
2019-05-10T19:04:52.701Z,3.57
2019-05-10T19:07:28.294Z,3.90
2019-05-10T19:09:58.646Z,3.73
2019-05-10T19:12:31.307Z,3.83
2019-05-10T19:15:27.437Z,4.70
2019-05-10T19:18:22.467Z,4.20
2019-05-10T19:20:53.578Z,4.90
2019-05-10T19:23:22.173Z,5.23
2019-05-10T19:25:53.937Z,4.90
2019-05-10T19:28:26.959Z,4.97
2019-05-10T19:30:58.799Z,4.17
2019-05-10T19:33:36.155Z,3.80
2019-05-10T19:39:08.091Z,4.00
2019-05-10T19:41:40.970Z,4.50
2019-05-10T19:44:11.848Z,3.33
2019-05-10T19:46:43.067Z,4.30
2019-05-10T19:49:15.972Z,4.07
2019-05-10T19:51:49.129Z,4.23
2019-05-10T19:54:21.316Z,4.30
2019-05-10T19:56:55.369Z,4.83
2019-05-10T19:59:25.949Z,4.57
2019-05-10T20:01:57.080Z,3.80
2019-05-10T20:04:27.557Z,4.30
2019-05-10T20:06:57.831Z,4.60
2019-05-10T20:09:28.303Z,4.60
2019-05-10T20:11:59.840Z,4.60
2019-05-10T20:14:31.449Z,4.87
2019-05-10T20:17:01.593Z,4.67
2019-05-10T20:19:32.031Z,4.40
2019-05-10T20:22:02.739Z,3.87
2019-05-10T20:24:33.071Z,5.00
2019-05-10T20:27:06.910Z,5.13
2019-05-10T20:29:37.497Z,4.30
2019-05-10T20:32:09.519Z,4.73
2019-05-10T20:34:45.627Z,5.40
2019-05-10T20:37:17.213Z,4.40
2019-05-10T20:39:49.687Z,5.73
2019-05-10T20:42:20.744Z,4.83
2019-05-10T20:45:06.211Z,5.63
2019-05-10T20:47:24.384Z,5.47
2019-05-10T20:49:56.430Z,5.60
2019-05-10T20:52:27.750Z,5.60
2019-05-10T20:54:58.323Z,5.03
2019-05-10T20:57:28.847Z,5.13
2019-05-10T21:00:02.509Z,5.37
2019-05-10T21:02:33.096Z,6.50
2019-05-10T21:05:08.417Z,5.87
2019-05-10T21:07:38.880Z,5.67
2019-05-10T21:10:09.537Z,5.70
2019-05-10T21:12:40.300Z,6.27
2019-05-10T21:15:11.060Z,6.50
2019-05-10T21:17:41.770Z,5.80
2019-05-10T21:20:12.943Z,7.57
2019-05-10T21:22:43.375Z,7.37
2019-05-10T21:25:14.029Z,7.90
2019-05-10T21:27:44.361Z,6.87
2019-05-10T21:30:14.847Z,7.37
2019-05-10T21:32:47.475Z,7.33
2019-05-10T21:35:17.883Z,7.27
2019-05-10T21:37:50.942Z,7.57
2019-05-10T21:40:24.748Z,7.30
2019-05-10T21:42:55.273Z,7.57
2019-05-10T21:45:29.366Z,6.50
2019-05-10T21:47:59.866Z,6.50
2019-05-10T21:50:30.842Z,7.57
2019-05-10T21:53:01.269Z,6.40
2019-05-10T21:55:32.633Z,6.70
2019-05-10T21:58:04.879Z,9.13
2019-05-10T22:00:40.200Z,9.03
2019-05-10T22:03:10.848Z,9.40
2019-05-10T22:05:41.425Z,8.97
2019-05-10T22:08:14.515Z,11.43
2019-05-10T22:10:46.354Z,9.70
2019-05-10T22:13:18.048Z,10.10
2019-05-10T22:15:49.059Z,10.00
2019-05-10T22:18:20.194Z,9.70
2019-05-10T22:20:53.783Z,9.17
2019-05-10T22:23:25.207Z,9.83
2019-05-10T22:25:57.370Z,9.53
2019-05-10T22:28:28.001Z,10.67
2019-05-10T22:30:58.945Z,11.67
2019-05-10T22:33:29.902Z,10.23
2019-05-10T22:36:00.315Z,10.87
2019-05-10T22:38:30.665Z,10.73
2019-05-10T22:41:01.190Z,13.00
2019-05-10T22:43:31.681Z,12.33
2019-05-10T22:46:02.250Z,11.00
2019-05-10T22:48:33.016Z,12.63
2019-05-10T22:51:03.960Z,12.10
2019-05-10T22:53:34.470Z,15.00
2019-05-10T22:56:04.902Z,14.57
2019-05-10T22:58:35.254Z,13.40
2019-05-10T23:01:05.670Z,13.07
2019-05-10T23:03:36.187Z,13.37
2019-05-10T23:06:06.615Z,12.93
2019-05-10T23:08:37.304Z,13.77
2019-05-10T23:11:07.694Z,14.73
2019-05-10T23:13:38.223Z,13.13
2019-05-10T23:16:08.990Z,13.83
2019-05-10T23:18:39.300Z,13.53
2019-05-10T23:21:09.735Z,14.07
2019-05-10T23:23:40.253Z,13.37
2019-05-10T23:26:10.620Z,12.97
2019-05-10T23:28:41.080Z,16.07
2019-05-10T23:31:11.610Z,14.73
2019-05-10T23:33:43.866Z,15.57
2019-05-10T23:36:14.445Z,18.60
2019-05-10T23:38:46.636Z,17.70
2019-05-10T23:41:18.895Z,16.17
2019-05-10T23:43:50.060Z,17.60
2019-05-10T23:46:20.873Z,15.90
2019-05-10T23:48:51.516Z,17.27
2019-05-10T23:51:21.882Z,17.73
2019-05-10T23:53:52.427Z,17.63
2019-05-10T23:56:22.797Z,17.43
2019-05-10T23:58:53.139Z,18.53
